Terminal Aerodrome Forecast
Issued by NWS

Home | Current Version | Previous Version | Text Only | Print | Product List | Glossary On
Versions: 1 2 3 4 5 6 7 8 9 10 11 12 13 14 15 16 17 18 19 20 21 22 23 24 25 26 27 28 29 30 31 32
000
FTUS43 KEAX 232300
TAFSTJ
TAF
KSTJ 232326Z 2400/2424 33020G30KT 5SM -RA OVC018
     FM240600 30015G25KT 6SM -RA OVC020
     FM241000 29015G25KT P6SM OVC025
     FM241600 29020G30KT P6SM SCT030=

USA.gov is the U.S. government's official web portal to all federal, state and local government web resources and services.